createdAt,value
2023-02-26T00:00:01.621Z,100561.47
2023-02-26T00:10:07.534Z,100567.13
2023-02-26T00:20:12.211Z,100573.28
2023-02-26T00:30:14.564Z,100590.75
2023-02-26T00:40:30.199Z,100591.03
2023-02-26T00:50:33.083Z,100605.47
2023-02-26T01:00:35.292Z,100607.41
2023-02-26T01:10:38.455Z,100625.13
2023-02-26T01:20:49.867Z,100637.97
2023-02-26T01:30:54.845Z,100636.72
2023-02-26T01:41:24.716Z,100641.25
2023-02-26T01:51:51.143Z,100656.97
2023-02-26T02:01:56.296Z,100660.78
2023-02-26T02:12:10.513Z,100672.44
2023-02-26T02:22:41.034Z,100674.31
2023-02-26T02:32:51.334Z,100681.78
2023-02-26T02:42:59.776Z,100700.66
2023-02-26T02:53:06.825Z,100702.28
2023-02-26T03:03:29.960Z,100713.09
2023-02-26T03:13:32.474Z,100725.09
2023-02-26T03:24:14.463Z,100738.81
2023-02-26T03:34:32.634Z,100748.16
2023-02-26T03:44:43.907Z,100755.66
2023-02-26T03:54:52.430Z,100776.22
2023-02-26T04:05:18.256Z,100803.91
2023-02-26T04:15:21.033Z,100821.03
2023-02-26T04:25:23.933Z,100837.97
2023-02-26T04:35:28.212Z,100846.72
2023-02-26T04:45:32.984Z,100842.75
2023-02-26T04:55:36.186Z,100856.03
2023-02-26T05:05:41.319Z,100871.50
2023-02-26T05:15:43.531Z,100885.28
2023-02-26T05:25:47.946Z,100890.69
2023-02-26T05:35:51.434Z,100920.72
2023-02-26T05:45:54.509Z,100927.78
2023-02-26T05:55:56.928Z,100934.22
2023-02-26T06:06:00.125Z,100952.22
2023-02-26T06:16:02.815Z,100960.72
2023-02-26T06:26:05.700Z,100986.97
2023-02-26T06:36:10.503Z,101015.31
2023-02-26T06:46:13.165Z,101026.53
2023-02-26T06:56:15.548Z,101046.97
2023-02-26T07:06:27.358Z,101059.72
2023-02-26T07:16:30.451Z,101070.88
2023-02-26T07:26:32.900Z,101087.50
2023-02-26T07:36:35.225Z,101101.97
2023-02-26T07:46:37.605Z,101115.16
2023-02-26T07:56:41.223Z,101130.44
2023-02-26T08:06:43.580Z,101138.38
2023-02-26T08:16:46.016Z,101141.88
2023-02-26T08:26:48.287Z,101155.22
2023-02-26T08:36:50.402Z,101169.94
2023-02-26T08:46:52.521Z,101171.41
2023-02-26T08:56:55.900Z,101180.88
2023-02-26T09:06:58.096Z,101191.41
2023-02-26T09:17:00.451Z,101219.78
2023-02-26T09:27:03.968Z,101219.44
2023-02-26T09:37:07.733Z,101239.28
2023-02-26T09:47:30.753Z,101256.34
2023-02-26T09:57:35.407Z,101262.91
2023-02-26T10:07:46.937Z,101265.91
2023-02-26T10:18:05.833Z,101278.16
2023-02-26T10:28:41.976Z,101300.78
2023-02-26T10:38:47.522Z,101291.69
2023-02-26T10:48:57.780Z,101301.34
2023-02-26T10:59:00.791Z,101304.63
2023-02-26T11:09:03.346Z,101309.91
2023-02-26T11:19:06.904Z,101314.22
2023-02-26T11:29:16.241Z,101323.00
2023-02-26T11:39:23.155Z,101331.22
2023-02-26T11:49:28.007Z,101321.63
2023-02-26T11:59:32.593Z,101318.69
2023-02-26T12:09:34.854Z,101317.44
2023-02-26T12:19:47.781Z,101311.09
2023-02-26T12:29:53.368Z,101316.28
2023-02-26T12:40:18.508Z,101314.22
2023-02-26T12:50:59.324Z,101303.31
2023-02-26T13:01:28.904Z,101317.59
2023-02-26T13:12:04.605Z,101312.81
2023-02-26T13:22:21.613Z,101318.16
2023-02-26T13:32:30.980Z,101318.31
2023-02-26T13:42:54.501Z,101312.69
2023-02-26T13:53:39.854Z,101312.06
2023-02-26T14:03:53.734Z,101305.09
2023-02-26T14:14:19.192Z,101325.56
2023-02-26T14:24:37.415Z,101312.31
2023-02-26T14:34:52.466Z,101297.38
2023-02-26T14:45:04.100Z,101308.88
2023-02-26T14:55:27.003Z,101303.53
2023-02-26T15:05:43.673Z,101319.03
2023-02-26T15:15:55.595Z,101328.19
2023-02-26T15:25:59.197Z,101322.94
2023-02-26T15:36:06.656Z,101333.59
2023-02-26T15:46:10.026Z,101346.66
2023-02-26T15:56:22.909Z,101355.03
2023-02-26T16:06:33.076Z,101353.47
2023-02-26T16:16:42.898Z,101360.94
2023-02-26T16:26:53.810Z,101375.13
2023-02-26T16:36:57.024Z,101382.72
2023-02-26T16:47:00.133Z,101387.91
2023-02-26T16:57:14.114Z,101393.09
2023-02-26T17:07:24.250Z,101405.72
2023-02-26T17:17:26.670Z,101408.09
2023-02-26T17:27:35.617Z,101423.88
2023-02-26T17:37:39.814Z,101434.25
2023-02-26T17:47:43.072Z,101440.28
2023-02-26T17:57:45.181Z,101455.84
2023-02-26T18:07:48.448Z,101466.81
2023-02-26T18:17:50.567Z,101466.56
2023-02-26T18:27:59.901Z,101474.53
2023-02-26T18:38:02.856Z,101478.19
2023-02-26T18:48:05.140Z,101473.19
2023-02-26T18:58:07.263Z,101478.53
2023-02-26T19:08:11.255Z,101478.19
2023-02-26T19:18:13.550Z,101480.66
2023-02-26T19:28:15.961Z,101482.25
2023-02-26T19:38:19.230Z,101503.03
2023-02-26T19:48:26.167Z,101500.47
2023-02-26T19:58:30.850Z,101520.44
2023-02-26T20:08:33.069Z,101529.22
2023-02-26T20:18:35.727Z,101536.53
2023-02-26T20:28:38.434Z,101553.13
2023-02-26T20:38:40.670Z,101564.97
2023-02-26T20:48:44.114Z,101565.28
2023-02-26T20:58:47.420Z,101583.75
2023-02-26T21:08:49.501Z,101577.66
2023-02-26T21:18:51.891Z,101591.47
2023-02-26T21:28:54.259Z,101597.66
2023-02-26T21:38:56.366Z,101598.84
2023-02-26T21:48:58.526Z,101598.59
2023-02-26T21:59:00.840Z,101615.41
2023-02-26T22:09:03.642Z,101610.00
2023-02-26T22:19:05.743Z,101623.66
2023-02-26T22:29:08.080Z,101623.13
2023-02-26T22:39:10.413Z,101622.25
2023-02-26T22:49:13.290Z,101631.59
2023-02-26T22:59:15.619Z,101636.34
2023-02-26T23:09:18.673Z,101651.41
2023-02-26T23:19:20.975Z,101654.47
2023-02-26T23:29:23.377Z,101651.47
2023-02-26T23:39:28.441Z,101659.75
2023-02-26T23:49:30.794Z,101664.19
2023-02-26T23:59:34.178Z,101655.09
